createdAt,value
2016-05-24T00:00:46.404Z,1007.17
2016-05-24T00:01:46.781Z,1007.12
2016-05-24T00:02:46.426Z,1007.19
2016-05-24T00:03:46.084Z,1007.12
2016-05-24T00:04:46.321Z,1007.22
2016-05-24T00:05:46.167Z,1007.18
2016-05-24T00:06:46.295Z,1007.23
2016-05-24T00:07:46.188Z,1007.17
2016-05-24T00:08:46.222Z,1007.18
2016-05-24T00:09:45.850Z,1007.24
2016-05-24T00:10:46.103Z,1007.23
2016-05-24T00:11:44.808Z,1007.23
2016-05-24T00:12:45.858Z,1007.3
2016-05-24T00:13:46.189Z,1007.29
2016-05-24T00:14:45.972Z,1007.34
2016-05-24T00:15:45.991Z,1007.31
2016-05-24T00:16:44.822Z,1007.31
2016-05-24T00:17:44.669Z,1007.37
2016-05-24T00:18:44.639Z,1007.3
2016-05-24T00:19:44.611Z,1007.32
2016-05-24T00:20:44.583Z,1007.34
2016-05-24T00:21:44.570Z,1007.31
2016-05-24T00:22:44.541Z,1007.34
2016-05-24T00:23:44.513Z,1007.33
2016-05-24T00:24:44.499Z,1007.3
2016-05-24T00:25:44.471Z,1007.34
2016-05-24T00:26:44.442Z,1007.24
2016-05-24T00:27:44.430Z,1007.24
2016-05-24T00:28:44.401Z,1007.2
2016-05-24T00:29:44.373Z,1007.25
2016-05-24T00:30:44.359Z,1007.27
2016-05-24T00:31:44.332Z,1007.29
2016-05-24T00:32:44.302Z,1007.26
2016-05-24T00:33:44.274Z,1007.24
2016-05-24T00:34:44.261Z,1007.23
2016-05-24T00:35:44.232Z,1007.22
2016-05-24T00:36:44.219Z,1007.2
2016-05-24T00:37:44.190Z,1007.22
2016-05-24T00:38:44.162Z,1007.17
2016-05-24T00:39:44.134Z,1007.23
2016-05-24T00:40:44.121Z,1007.15
2016-05-24T00:41:44.092Z,1007.21
2016-05-24T00:42:44.064Z,1007.18
2016-05-24T00:43:44.050Z,1007.15
2016-05-24T00:44:44.022Z,1007.16
2016-05-24T00:45:44.009Z,1007.17
2016-05-24T00:46:43.981Z,1007.19
2016-05-24T00:47:43.952Z,1007.09
2016-05-24T00:48:43.924Z,1007.18
2016-05-24T00:49:43.895Z,1007.13
2016-05-24T00:50:43.883Z,1007.14
2016-05-24T00:51:43.853Z,1007.19
2016-05-24T00:52:43.825Z,1007.26
2016-05-24T00:53:43.812Z,1007.15
2016-05-24T00:54:43.783Z,1007.14
2016-05-24T00:55:43.755Z,1007.23
2016-05-24T00:56:43.742Z,1007.2
2016-05-24T00:57:43.713Z,1007.23
2016-05-24T00:58:43.685Z,1007.21
2016-05-24T00:59:43.656Z,1007.2
2016-05-24T01:00:43.654Z,1007.2
2016-05-24T01:01:43.654Z,1007.17
2016-05-24T01:02:43.654Z,1007.22
2016-05-24T01:03:43.670Z,1007.26
2016-05-24T01:04:43.669Z,1007.19
2016-05-24T01:05:43.661Z,1007.23
2016-05-24T01:06:43.643Z,1007.25
2016-05-24T01:07:43.640Z,1007.24
2016-05-24T01:08:43.622Z,1007.25
2016-05-24T01:09:43.620Z,1007.26
2016-05-24T01:10:43.598Z,1007.28
2016-05-24T01:11:43.573Z,1007.27
2016-05-24T01:12:43.549Z,1007.3
2016-05-24T01:13:43.539Z,1007.32
2016-05-24T01:14:43.515Z,1007.41
2016-05-24T01:15:43.490Z,1007.31
2016-05-24T01:16:43.477Z,1007.24
2016-05-24T01:17:43.450Z,1007.36
2016-05-24T01:18:43.423Z,1007.27
2016-05-24T01:19:43.394Z,1007.25
2016-05-24T01:20:43.383Z,1007.27
2016-05-24T01:21:43.356Z,1007.27
2016-05-24T01:22:43.326Z,1007.25
2016-05-24T01:23:43.299Z,1007.31
2016-05-24T01:24:43.285Z,1007.28
2016-05-24T01:25:43.258Z,1007.25
2016-05-24T01:26:43.229Z,1007.33
2016-05-24T01:27:43.217Z,1007.17
2016-05-24T01:28:43.188Z,1007.19
2016-05-24T01:29:43.317Z,1007.23
2016-05-24T01:30:43.132Z,1007.2
2016-05-24T01:31:43.120Z,1007.16
2016-05-24T01:32:43.092Z,1007.2
2016-05-24T01:33:43.062Z,1007.18
2016-05-24T01:34:43.049Z,1007.2
2016-05-24T01:35:43.021Z,1007.15
2016-05-24T01:36:42.991Z,1007.12
2016-05-24T01:37:42.980Z,1007.11
2016-05-24T01:38:42.951Z,1007.2
2016-05-24T01:39:42.922Z,1007.16
2016-05-24T01:40:42.894Z,1007.22
2016-05-24T01:41:42.880Z,1007.16
2016-05-24T01:42:42.852Z,1007.14
2016-05-24T01:43:42.823Z,1007.2
2016-05-24T01:44:42.811Z,1007.17
2016-05-24T01:45:42.782Z,1007.18
2016-05-24T01:46:42.754Z,1007.16
2016-05-24T01:47:42.740Z,1007.15
2016-05-24T01:48:42.712Z,1007.14
2016-05-24T01:49:42.684Z,1007.17
2016-05-24T01:50:42.655Z,1007.12
2016-05-24T01:51:42.642Z,1007.11
2016-05-24T01:52:42.613Z,1007.14
2016-05-24T01:53:42.584Z,1007.18
2016-05-24T01:54:42.572Z,1007.13
2016-05-24T01:55:42.543Z,1007.12
2016-05-24T01:56:42.515Z,1007.11
2016-05-24T01:57:42.486Z,1007.12
2016-05-24T01:58:42.473Z,1007.17
2016-05-24T01:59:42.445Z,1007.18
2016-05-24T02:00:42.417Z,1007.17
2016-05-24T02:01:42.403Z,1007.1
2016-05-24T02:02:42.375Z,1007.14
2016-05-24T02:03:42.346Z,1007.17
2016-05-24T02:04:42.333Z,1007.17
2016-05-24T02:05:42.304Z,1007.13
2016-05-24T02:06:42.276Z,1007.14
2016-05-24T02:07:42.279Z,1007.06
2016-05-24T02:08:42.235Z,1007.05
2016-05-24T02:09:42.205Z,1007.1
2016-05-24T02:10:42.177Z,1007.07
2016-05-24T02:11:42.164Z,1007.17
2016-05-24T02:12:42.136Z,1007.08
2016-05-24T02:13:42.108Z,1007.14
2016-05-24T02:14:42.547Z,1007.06
2016-05-24T02:15:42.066Z,1007.1
2016-05-24T02:16:43.271Z,1007.05
2016-05-24T02:17:43.274Z,1007.04
2016-05-24T02:18:41.996Z,1007.07
2016-05-24T02:19:41.967Z,1007.09
2016-05-24T02:20:41.955Z,1007.08
2016-05-24T02:21:41.910Z,1007.09
2016-05-24T02:22:41.897Z,1007.09
2016-05-24T02:23:41.868Z,1007.08
2016-05-24T02:24:41.840Z,1007.19
2016-05-24T02:25:41.827Z,1007.09
2016-05-24T02:26:41.798Z,1007.04
2016-05-24T02:27:41.770Z,1007.05
2016-05-24T02:28:41.742Z,1007.05
2016-05-24T02:29:41.948Z,1007.07
2016-05-24T02:30:41.700Z,1007.07
2016-05-24T02:31:41.672Z,1007.09
2016-05-24T02:32:41.642Z,1007.15
2016-05-24T02:33:41.630Z,1007.1
2016-05-24T02:34:41.600Z,1007.11
2016-05-24T02:35:41.573Z,1007.13
2016-05-24T02:36:41.560Z,1007.08
2016-05-24T02:37:41.531Z,1007.05
2016-05-24T02:38:41.502Z,1007.15
2016-05-24T02:39:41.489Z,1007.03
2016-05-24T02:40:41.461Z,1007.06
2016-05-24T02:41:41.433Z,1007.01
2016-05-24T02:42:41.405Z,1006.94
2016-05-24T02:43:41.391Z,1006.95
2016-05-24T02:44:41.565Z,1006.94
2016-05-24T02:45:41.396Z,1007.03
2016-05-24T02:46:41.305Z,1006.96
2016-05-24T02:47:41.293Z,1007
2016-05-24T02:48:41.327Z,1006.93
2016-05-24T02:49:41.235Z,1006.96
2016-05-24T02:50:41.223Z,1006.92
2016-05-24T02:51:41.193Z,1006.98
2016-05-24T02:52:41.165Z,1006.98
2016-05-24T02:53:41.137Z,1007.01
2016-05-24T02:54:41.124Z,1006.98
2016-05-24T02:55:41.095Z,1007.01
2016-05-24T02:56:41.067Z,1006.99
2016-05-24T02:57:41.054Z,1007.03
2016-05-24T02:58:41.026Z,1007.03
2016-05-24T02:59:40.997Z,1007.02
2016-05-24T03:00:40.984Z,1007.02
2016-05-24T03:01:40.955Z,1006.98
2016-05-24T03:02:40.926Z,1006.95
2016-05-24T03:03:40.898Z,1006.92
2016-05-24T03:04:40.886Z,1006.98
2016-05-24T03:05:40.856Z,1006.96
2016-05-24T03:06:40.828Z,1006.99
2016-05-24T03:07:40.800Z,1007.03
2016-05-24T03:08:40.786Z,1007.02
2016-05-24T03:09:40.758Z,1007.03
2016-05-24T03:10:40.730Z,1007.05
2016-05-24T03:11:40.700Z,1007.13
2016-05-24T03:12:40.688Z,1007.09
2016-05-24T03:13:40.659Z,1007.11
2016-05-24T03:14:40.646Z,1007.12
2016-05-24T03:15:40.618Z,1007.07
2016-05-24T03:16:40.589Z,1007.08
2016-05-24T03:17:40.561Z,1007.15
2016-05-24T03:18:40.548Z,1007.12
2016-05-24T03:19:40.518Z,1007.12
2016-05-24T03:20:40.490Z,1007.18
2016-05-24T03:21:40.462Z,1007.19
2016-05-24T03:22:40.449Z,1007.11
2016-05-24T03:23:40.421Z,1007.11
2016-05-24T03:24:40.392Z,1007.18
2016-05-24T03:25:40.379Z,1007.13
2016-05-24T03:26:40.351Z,1007.12
2016-05-24T03:27:40.322Z,1007.18
2016-05-24T03:28:40.293Z,1007.16
2016-05-24T03:29:40.281Z,1007.12
2016-05-24T03:30:40.251Z,1007.16
2016-05-24T03:31:40.223Z,1007.11
2016-05-24T03:32:40.195Z,1007.16
2016-05-24T03:33:40.181Z,1007.1
2016-05-24T03:34:40.153Z,1007.15
2016-05-24T03:35:40.125Z,1007.13
2016-05-24T03:36:40.096Z,1007.13
2016-05-24T03:37:40.084Z,1007.2
2016-05-24T03:38:40.055Z,1007.17
2016-05-24T03:39:40.026Z,1007.22
2016-05-24T03:40:40.013Z,1007.25
2016-05-24T03:41:39.985Z,1007.28
2016-05-24T03:42:39.955Z,1007.28
2016-05-24T03:43:39.928Z,1007.23
2016-05-24T03:44:39.914Z,1007.26
2016-05-24T03:45:39.886Z,1007.21
2016-05-24T03:46:39.857Z,1007.24
2016-05-24T03:47:39.829Z,1007.24
2016-05-24T03:48:39.815Z,1007.27
2016-05-24T03:49:39.788Z,1007.28
2016-05-24T03:50:39.759Z,1007.31
2016-05-24T03:51:39.746Z,1007.27
2016-05-24T03:52:39.717Z,1007.33
2016-05-24T03:53:39.689Z,1007.31
2016-05-24T03:54:39.660Z,1007.38
2016-05-24T03:55:39.648Z,1007.39
2016-05-24T03:56:39.618Z,1007.4
2016-05-24T03:57:39.590Z,1007.4
2016-05-24T03:58:39.577Z,1007.36
2016-05-24T03:59:39.673Z,1007.38
2016-05-24T04:00:39.520Z,1007.4
2016-05-24T04:01:39.492Z,1007.43
2016-05-24T04:02:39.478Z,1007.41
2016-05-24T04:03:39.450Z,1007.45
2016-05-24T04:04:39.422Z,1007.46
2016-05-24T04:05:39.409Z,1007.44
2016-05-24T04:06:39.380Z,1007.51
2016-05-24T04:07:39.351Z,1007.49
2016-05-24T04:08:39.322Z,1007.5
2016-05-24T04:09:39.310Z,1007.48
2016-05-24T04:10:39.281Z,1007.5
2016-05-24T04:11:39.253Z,1007.5
2016-05-24T04:12:39.239Z,1007.53
2016-05-24T04:13:39.211Z,1007.55
2016-05-24T04:14:39.182Z,1007.52
2016-05-24T04:15:39.169Z,1007.53
2016-05-24T04:16:39.142Z,1007.49
2016-05-24T04:17:39.113Z,1007.47
2016-05-24T04:18:39.085Z,1007.51
2016-05-24T04:19:39.055Z,1007.5
2016-05-24T04:20:39.042Z,1007.45
2016-05-24T04:21:39.014Z,1007.5
2016-05-24T04:22:39.001Z,1007.51
2016-05-24T04:23:38.973Z,1007.5
2016-05-24T04:24:38.944Z,1007.48
2016-05-24T04:25:38.915Z,1007.53
2016-05-24T04:26:38.887Z,1007.46
2016-05-24T04:27:38.873Z,1007.44
2016-05-24T04:28:38.846Z,1007.59
2016-05-24T04:29:38.832Z,1007.56
2016-05-24T04:30:38.804Z,1007.51
2016-05-24T04:31:38.775Z,1007.58
2016-05-24T04:32:38.747Z,1007.59
2016-05-24T04:33:38.718Z,1007.57
2016-05-24T04:34:38.706Z,1007.58
2016-05-24T04:35:38.676Z,1007.57
2016-05-24T04:36:38.648Z,1007.61
2016-05-24T04:37:38.619Z,1007.64
2016-05-24T04:38:38.606Z,1007.63
2016-05-24T04:39:38.578Z,1007.62
2016-05-24T04:40:38.550Z,1007.66
2016-05-24T04:41:38.536Z,1007.71
2016-05-24T04:42:38.508Z,1007.65
2016-05-24T04:43:38.479Z,1007.63
2016-05-24T04:44:38.467Z,1007.59
2016-05-24T04:45:38.438Z,1007.61
2016-05-24T04:46:38.410Z,1007.62
2016-05-24T04:47:38.380Z,1007.61
2016-05-24T04:48:38.368Z,1007.61
2016-05-24T04:49:38.338Z,1007.55
2016-05-24T04:50:38.311Z,1007.61
2016-05-24T04:51:38.299Z,1007.59
2016-05-24T04:52:38.269Z,1007.61
2016-05-24T04:53:38.240Z,1007.57
2016-05-24T04:54:38.212Z,1007.55
2016-05-24T04:55:38.199Z,1007.53
2016-05-24T04:56:38.171Z,1007.55
2016-05-24T04:57:38.143Z,1007.51
2016-05-24T04:58:38.113Z,1007.57
2016-05-24T04:59:38.100Z,1007.54
2016-05-24T05:00:38.088Z,1007.5
2016-05-24T05:01:38.043Z,1007.49
2016-05-24T05:02:38.015Z,1007.54
2016-05-24T05:03:38.002Z,1007.51
2016-05-24T05:04:37.973Z,1007.58
2016-05-24T05:05:37.961Z,1007.56
2016-05-24T05:06:37.931Z,1007.53
2016-05-24T05:07:37.903Z,1007.5
2016-05-24T05:08:37.875Z,1007.54
2016-05-24T05:09:37.847Z,1007.52
2016-05-24T05:10:37.833Z,1007.52
2016-05-24T05:11:37.805Z,1007.54
2016-05-24T05:12:37.776Z,1007.52
2016-05-24T05:13:37.764Z,1007.56
2016-05-24T05:14:37.735Z,1007.59
2016-05-24T05:15:37.722Z,1007.59
2016-05-24T05:16:37.693Z,1007.54
2016-05-24T05:17:37.664Z,1007.49
2016-05-24T05:18:37.636Z,1007.59
2016-05-24T05:19:37.608Z,1007.57
2016-05-24T05:20:37.594Z,1007.62
2016-05-24T05:21:37.566Z,1007.59
2016-05-24T05:22:37.538Z,1007.62
2016-05-24T05:23:37.525Z,1007.58
2016-05-24T05:24:37.495Z,1007.6
2016-05-24T05:25:37.468Z,1007.58
2016-05-24T05:26:37.455Z,1007.57
2016-05-24T05:27:37.426Z,1007.58
2016-05-24T05:28:37.397Z,1007.58
2016-05-24T05:29:37.368Z,1007.61
2016-05-24T05:30:37.356Z,1007.59
2016-05-24T05:31:37.327Z,1007.59
2016-05-24T05:32:37.314Z,1007.65
2016-05-24T05:33:37.271Z,1007.66
2016-05-24T05:34:37.257Z,1007.63
2016-05-24T05:35:37.228Z,1007.72
2016-05-24T05:36:37.201Z,1007.71
2016-05-24T05:37:37.187Z,1007.79
2016-05-24T05:38:37.158Z,1007.72
2016-05-24T05:39:37.130Z,1007.71
2016-05-24T05:40:37.117Z,1007.78
2016-05-24T05:41:37.089Z,1007.8
2016-05-24T05:42:37.060Z,1007.74
2016-05-24T05:43:37.047Z,1007.79
2016-05-24T05:44:37.019Z,1007.74
2016-05-24T05:45:36.989Z,1007.75
2016-05-24T05:46:36.977Z,1007.78
2016-05-24T05:47:36.948Z,1007.76
2016-05-24T05:48:36.935Z,1007.78
2016-05-24T05:49:36.908Z,1007.77
2016-05-24T05:50:36.878Z,1007.82
2016-05-24T05:51:36.850Z,1007.83
2016-05-24T05:52:36.821Z,1007.84
2016-05-24T05:53:36.808Z,1007.85
2016-05-24T05:54:36.779Z,1007.86
2016-05-24T05:55:36.751Z,1007.87
2016-05-24T05:56:36.738Z,1007.86
2016-05-24T05:57:36.710Z,1007.83
2016-05-24T05:58:36.681Z,1007.83
2016-05-24T05:59:36.668Z,1007.84
2016-05-24T06:00:36.640Z,1007.79
2016-05-24T06:01:36.611Z,1007.83
2016-05-24T06:02:36.598Z,1007.79
2016-05-24T06:03:36.569Z,1007.84
2016-05-24T06:04:36.541Z,1007.82
2016-05-24T06:05:36.528Z,1007.81
2016-05-24T06:06:36.500Z,1007.86
2016-05-24T06:07:36.470Z,1007.82
2016-05-24T06:08:36.473Z,1007.83
2016-05-24T06:09:36.428Z,1007.83
2016-05-24T06:10:36.463Z,1007.87
2016-05-24T06:11:36.732Z,1007.82
2016-05-24T06:12:36.359Z,1007.84
2016-05-24T06:13:36.330Z,1007.89
2016-05-24T06:14:36.303Z,1007.82
2016-05-24T06:15:36.289Z,1007.89
2016-05-24T06:16:36.260Z,1007.88
2016-05-24T06:17:36.232Z,1007.9
2016-05-24T06:18:36.219Z,1007.85
2016-05-24T06:19:36.191Z,1007.88
2016-05-24T06:20:36.178Z,1007.89
2016-05-24T06:21:36.149Z,1007.89
2016-05-24T06:22:36.121Z,1007.91
2016-05-24T06:23:36.091Z,1007.95
2016-05-24T06:24:36.079Z,1007.91
2016-05-24T06:25:36.051Z,1007.95
2016-05-24T06:26:36.022Z,1008
2016-05-24T06:27:36.009Z,1007.94
2016-05-24T06:28:35.980Z,1007.91
2016-05-24T06:29:35.968Z,1007.9
2016-05-24T06:30:35.939Z,1007.89
2016-05-24T06:31:35.910Z,1007.93
2016-05-24T06:32:35.898Z,1007.93
2016-05-24T06:33:35.869Z,1007.98
2016-05-24T06:34:35.840Z,1007.93
2016-05-24T06:35:35.812Z,1007.95
2016-05-24T06:36:35.799Z,1007.92
2016-05-24T06:37:35.770Z,1007.95
2016-05-24T06:38:35.757Z,1007.96
2016-05-24T06:39:35.729Z,1007.93
2016-05-24T06:40:35.701Z,1007.95
2016-05-24T06:41:35.687Z,1007.92
2016-05-24T06:42:35.658Z,1007.92
2016-05-24T06:43:35.645Z,1007.98
2016-05-24T06:44:35.617Z,1008
2016-05-24T06:45:35.589Z,1008.06
2016-05-24T06:46:35.561Z,1008.03
2016-05-24T06:47:35.547Z,1008.02
2016-05-24T06:48:35.519Z,1008.1
2016-05-24T06:49:35.506Z,1008.06
2016-05-24T06:50:35.681Z,1008.06
2016-05-24T06:51:35.449Z,1008.1
2016-05-24T06:52:35.436Z,1008.16
2016-05-24T06:53:35.407Z,1008.22
2016-05-24T06:54:35.379Z,1008.14
2016-05-24T06:55:35.366Z,1008.17
2016-05-24T06:56:35.337Z,1008.21
2016-05-24T06:57:35.308Z,1008.27
2016-05-24T06:58:35.311Z,1008.28
2016-05-24T06:59:35.268Z,1008.3
2016-05-24T07:00:35.255Z,1008.29
2016-05-24T07:01:35.226Z,1008.31
2016-05-24T07:02:35.197Z,1008.34
2016-05-24T07:03:35.168Z,1008.35
2016-05-24T07:04:35.156Z,1008.32
2016-05-24T07:05:35.127Z,1008.26
2016-05-24T07:06:35.114Z,1008.29
2016-05-24T07:07:35.101Z,1008.31
2016-05-24T07:08:35.057Z,1008.33
2016-05-24T07:09:35.045Z,1008.3
2016-05-24T07:10:35.015Z,1008.31
2016-05-24T07:11:34.987Z,1008.26
2016-05-24T07:12:34.974Z,1008.29
2016-05-24T07:13:34.946Z,1008.28
2016-05-24T07:14:34.917Z,1008.3
2016-05-24T07:15:34.903Z,1008.26
2016-05-24T07:16:34.875Z,1008.27
2016-05-24T07:17:34.862Z,1008.24
2016-05-24T07:18:34.833Z,1008.25
2016-05-24T07:19:34.805Z,1008.28
2016-05-24T07:20:34.792Z,1008.26
2016-05-24T07:21:34.764Z,1008.26
2016-05-24T07:22:34.735Z,1008.3
2016-05-24T07:23:34.722Z,1008.22
2016-05-24T07:24:34.725Z,1008.25
2016-05-24T07:25:34.666Z,1008.2
2016-05-24T07:26:34.652Z,1008.23
2016-05-24T07:27:34.624Z,1008.24
2016-05-24T07:28:34.611Z,1008.19
2016-05-24T07:29:34.582Z,1008.21
2016-05-24T07:30:34.569Z,1008.2
2016-05-24T07:31:34.540Z,1008.21
2016-05-24T07:32:34.512Z,1008.18
2016-05-24T07:33:34.484Z,1008.18
2016-05-24T07:34:34.471Z,1008.2
2016-05-24T07:35:34.457Z,1008.2
2016-05-24T07:36:34.429Z,1008.19
2016-05-24T07:37:34.401Z,1008.15
2016-05-24T07:38:34.373Z,1008.17
2016-05-24T07:39:34.359Z,1008.18
2016-05-24T07:40:34.331Z,1008.2
2016-05-24T07:41:34.317Z,1008.16
2016-05-24T07:42:34.289Z,1008.14
2016-05-24T07:43:34.261Z,1008.16
2016-05-24T07:44:34.247Z,1008.18
2016-05-24T07:45:34.220Z,1008.17
2016-05-24T07:46:34.206Z,1008.16
2016-05-24T07:47:34.177Z,1008.14
2016-05-24T07:48:34.150Z,1008.22
2016-05-24T07:49:34.136Z,1008.19
2016-05-24T07:50:34.108Z,1008.18
2016-05-24T07:51:34.095Z,1008.22
2016-05-24T07:52:34.066Z,1008.21
2016-05-24T07:53:34.038Z,1008.2
2016-05-24T07:54:34.024Z,1008.22
2016-05-24T07:55:34.105Z,1008.23
2016-05-24T07:56:33.967Z,1008.3
2016-05-24T07:57:33.955Z,1008.24
2016-05-24T07:58:34.035Z,1008.28
2016-05-24T07:59:33.913Z,1008.27
2016-05-24T08:00:33.884Z,1008.26
2016-05-24T08:01:33.871Z,1008.23
2016-05-24T08:02:33.843Z,1008.3
2016-05-24T08:03:33.815Z,1008.32
2016-05-24T08:04:33.802Z,1008.33
2016-05-24T08:05:33.882Z,1008.34
2016-05-24T08:06:33.744Z,1008.4
2016-05-24T08:07:33.731Z,1008.41
2016-05-24T08:08:33.703Z,1008.43
2016-05-24T08:09:33.690Z,1008.39
2016-05-24T08:10:33.662Z,1008.36
2016-05-24T08:11:33.648Z,1008.34
2016-05-24T08:12:33.620Z,1008.31
2016-05-24T08:13:33.592Z,1008.37
2016-05-24T08:14:33.578Z,1008.4
2016-05-24T08:15:33.550Z,1008.37
2016-05-24T08:16:33.537Z,1008.35
2016-05-24T08:17:33.509Z,1008.31
2016-05-24T08:18:33.480Z,1008.32
2016-05-24T08:19:33.466Z,1008.49
2016-05-24T08:20:33.438Z,1008.36
2016-05-24T08:21:33.426Z,1008.37
2016-05-24T08:22:33.412Z,1008.42
2016-05-24T08:23:33.384Z,1008.41
2016-05-24T08:24:33.356Z,1008.45
2016-05-24T08:25:33.327Z,1008.37
2016-05-24T08:26:33.313Z,1008.4
2016-05-24T08:27:33.300Z,1008.42
2016-05-24T08:28:33.272Z,1008.41
2016-05-24T08:29:33.244Z,1008.43
2016-05-24T08:30:35.387Z,1008.41
2016-05-24T08:31:33.202Z,1008.44
2016-05-24T08:32:33.174Z,1008.4
2016-05-24T08:33:33.145Z,1008.42
2016-05-24T08:34:33.132Z,1008.42
2016-05-24T08:35:33.182Z,1008.44
2016-05-24T08:36:33.091Z,1008.42
2016-05-24T08:37:33.062Z,1008.37
2016-05-24T08:38:33.049Z,1008.41
2016-05-24T08:39:33.020Z,1008.41
2016-05-24T08:40:33.007Z,1008.43
2016-05-24T08:41:32.979Z,1008.49
2016-05-24T08:42:32.951Z,1008.43
2016-05-24T08:43:32.938Z,1008.47
2016-05-24T08:44:32.909Z,1008.47
2016-05-24T08:45:32.896Z,1008.47
2016-05-24T08:46:32.867Z,1008.48
2016-05-24T08:47:32.839Z,1008.44
2016-05-24T08:48:32.825Z,1008.46
2016-05-24T08:49:32.891Z,1008.46
2016-05-24T08:50:32.770Z,1008.49
2016-05-24T08:51:32.756Z,1008.52
2016-05-24T08:52:32.727Z,1008.47
2016-05-24T08:53:32.714Z,1008.44
2016-05-24T08:54:32.702Z,1008.49
2016-05-24T08:55:32.657Z,1008.43
2016-05-24T08:56:32.645Z,1008.38
2016-05-24T08:57:32.616Z,1008.38
2016-05-24T08:58:32.603Z,1008.4
2016-05-24T08:59:32.574Z,1008.39
2016-05-24T09:00:32.593Z,1008.35
2016-05-24T09:01:32.533Z,1008.38
2016-05-24T09:02:32.519Z,1008.37
2016-05-24T09:03:32.492Z,1008.34
2016-05-24T09:04:32.479Z,1008.38
2016-05-24T09:05:32.449Z,1008.33
2016-05-24T09:06:32.437Z,1008.31
2016-05-24T09:07:32.408Z,1008.35
2016-05-24T09:08:32.380Z,1008.34
2016-05-24T09:09:32.367Z,1008.32
2016-05-24T09:10:32.432Z,1008.33
2016-05-24T09:11:32.326Z,1008.29
2016-05-24T09:12:32.391Z,1008.31
2016-05-24T09:13:32.268Z,1008.33
2016-05-24T09:14:32.256Z,1008.34
2016-05-24T09:15:32.227Z,1008.31
2016-05-24T09:16:32.229Z,1008.33
2016-05-24T09:17:32.217Z,1008.32
2016-05-24T09:18:32.172Z,1008.33
2016-05-24T09:19:32.175Z,1008.3
2016-05-24T09:20:32.115Z,1008.34
2016-05-24T09:21:32.103Z,1008.34
2016-05-24T09:22:32.089Z,1008.3
2016-05-24T09:23:32.076Z,1008.29
2016-05-24T09:24:32.048Z,1008.28
2016-05-24T09:25:32.036Z,1008.37
2016-05-24T09:26:31.991Z,1008.3
2016-05-24T09:27:31.977Z,1008.36
2016-05-24T09:28:31.950Z,1008.34
2016-05-24T09:29:31.936Z,1008.35
2016-05-24T09:30:31.908Z,1008.3
2016-05-24T09:31:31.895Z,1008.38
2016-05-24T09:32:31.866Z,1008.33
2016-05-24T09:33:31.853Z,1008.35
2016-05-24T09:34:31.872Z,1008.4
2016-05-24T09:35:31.796Z,1008.42
2016-05-24T09:36:31.876Z,1008.41
2016-05-24T09:37:31.755Z,1008.38
2016-05-24T09:38:31.741Z,1008.42
2016-05-24T09:39:31.713Z,1008.44
2016-05-24T09:40:31.701Z,1008.5
2016-05-24T09:41:31.687Z,1008.51
2016-05-24T09:42:31.659Z,1008.47
2016-05-24T09:43:31.630Z,1008.47
2016-05-24T09:44:31.617Z,1008.47
2016-05-24T09:45:31.589Z,1008.47
2016-05-24T09:46:31.559Z,1008.49
2016-05-24T09:47:31.610Z,1008.53
2016-05-24T09:48:31.519Z,1008.51
2016-05-24T09:49:31.505Z,1008.49
2016-05-24T09:50:31.493Z,1008.52
2016-05-24T09:51:31.464Z,1008.53
2016-05-24T09:52:31.436Z,1008.53
2016-05-24T09:53:31.423Z,1008.55
2016-05-24T09:54:31.394Z,1008.45
2016-05-24T09:55:32.147Z,1008.53
2016-05-24T09:56:31.369Z,1008.46
2016-05-24T09:57:31.339Z,1008.49
2016-05-24T09:58:31.342Z,1008.49
2016-05-24T09:59:31.298Z,1008.54
2016-05-24T10:00:31.364Z,1008.47
2016-05-24T10:01:31.257Z,1008.51
2016-05-24T10:02:31.228Z,1008.49
2016-05-24T10:03:31.216Z,1008.53
2016-05-24T10:04:31.186Z,1008.49
2016-05-24T10:05:31.173Z,1008.49
2016-05-24T10:06:31.159Z,1008.48
2016-05-24T10:07:31.168Z,1008.52
2016-05-24T10:08:31.176Z,1008.53
2016-05-24T10:09:31.145Z,1008.51
2016-05-24T10:10:31.139Z,1008.53
2016-05-24T10:11:31.148Z,1008.54
2016-05-24T10:12:31.132Z,1008.59
2016-05-24T10:13:31.127Z,1008.54
2016-05-24T10:14:31.107Z,1008.56
2016-05-24T10:15:31.101Z,1008.55
2016-05-24T10:16:31.098Z,1008.55
2016-05-24T10:17:31.105Z,1008.55
2016-05-24T10:18:31.048Z,1008.55
2016-05-24T10:19:31.038Z,1008.54
2016-05-24T10:20:31.011Z,1008.54
2016-05-24T10:21:32.162Z,1008.55
2016-05-24T10:22:30.975Z,1008.56
2016-05-24T10:23:30.963Z,1008.51
2016-05-24T10:24:30.936Z,1008.53
2016-05-24T10:25:30.923Z,1008.51
2016-05-24T10:26:30.896Z,1008.49
2016-05-24T10:27:30.884Z,1008.48
2016-05-24T10:28:30.856Z,1008.49
2016-05-24T10:29:30.843Z,1008.5
2016-05-24T10:30:30.815Z,1008.47
2016-05-24T10:31:30.802Z,1008.55
2016-05-24T10:32:30.774Z,1008.5
2016-05-24T10:33:30.762Z,1008.56
2016-05-24T10:34:30.732Z,1008.54
2016-05-24T10:35:30.720Z,1008.51
2016-05-24T10:36:30.690Z,1008.48
2016-05-24T10:37:30.678Z,1008.54
2016-05-24T10:38:30.650Z,1008.56
2016-05-24T10:39:30.637Z,1008.54
2016-05-24T10:40:30.701Z,1008.57
2016-05-24T10:41:30.595Z,1008.54
2016-05-24T10:42:30.567Z,1008.55
2016-05-24T10:43:30.553Z,1008.51
2016-05-24T10:44:30.525Z,1008.54
2016-05-24T10:45:30.512Z,1008.52
2016-05-24T10:46:30.483Z,1008.48
2016-05-24T10:47:30.455Z,1008.52
2016-05-24T10:48:30.442Z,1008.5
2016-05-24T10:49:30.430Z,1008.51
2016-05-24T10:50:30.400Z,1008.5
2016-05-24T10:51:30.388Z,1008.5
2016-05-24T10:52:30.375Z,1008.49
2016-05-24T10:53:30.330Z,1008.54
2016-05-24T10:54:30.318Z,1008.49
2016-05-24T10:55:30.288Z,1008.48
2016-05-24T10:56:30.323Z,1008.44
2016-05-24T10:57:30.263Z,1008.41
2016-05-24T10:58:30.235Z,1008.44
2016-05-24T10:59:30.221Z,1008.44
2016-05-24T11:00:30.209Z,1008.4
2016-05-24T11:01:30.179Z,1008.37
2016-05-24T11:02:30.152Z,1008.43
2016-05-24T11:03:30.138Z,1008.41
2016-05-24T11:04:30.126Z,1008.38
2016-05-24T11:05:30.098Z,1008.38
2016-05-24T11:06:30.084Z,1008.41
2016-05-24T11:07:30.056Z,1008.45
2016-05-24T11:08:30.043Z,1008.42
2016-05-24T11:09:30.029Z,1008.45
2016-05-24T11:10:30.001Z,1008.37
2016-05-24T11:11:29.989Z,1008.35
2016-05-24T11:12:29.959Z,1008.35
2016-05-24T11:13:29.947Z,1008.37
2016-05-24T11:14:29.933Z,1008.39
2016-05-24T11:15:29.906Z,1008.41
2016-05-24T11:16:29.892Z,1008.4
2016-05-24T11:17:29.879Z,1008.43
2016-05-24T11:18:29.851Z,1008.45
2016-05-24T11:19:29.822Z,1008.44
2016-05-24T11:20:29.809Z,1008.44
2016-05-24T11:21:29.781Z,1008.46
2016-05-24T11:22:29.768Z,1008.47
2016-05-24T11:23:29.896Z,1008.47
2016-05-24T11:24:29.727Z,1008.44
2016-05-24T11:25:29.713Z,1008.42
2016-05-24T11:26:29.685Z,1008.38
2016-05-24T11:27:29.672Z,1008.38
2016-05-24T11:28:29.659Z,1008.4
2016-05-24T11:29:29.630Z,1008.45
2016-05-24T11:30:29.602Z,1008.39
2016-05-24T11:31:29.589Z,1008.42
2016-05-24T11:32:29.623Z,1008.39
2016-05-24T11:33:29.548Z,1008.38
2016-05-24T11:34:29.535Z,1008.39
2016-05-24T11:35:29.538Z,1008.3
2016-05-24T11:36:29.493Z,1008.34
2016-05-24T11:37:29.464Z,1008.33
2016-05-24T11:38:29.451Z,1008.3
2016-05-24T11:39:29.470Z,1008.3
2016-05-24T11:40:29.410Z,1008.28
2016-05-24T11:41:29.397Z,1008.28
2016-05-24T11:42:29.368Z,1008.31
2016-05-24T11:43:29.356Z,1008.33
2016-05-24T11:44:29.342Z,1008.3
2016-05-24T11:45:29.564Z,1008.29
2016-05-24T11:46:29.300Z,1008.3
2016-05-24T11:47:29.272Z,1008.31
2016-05-24T11:48:29.259Z,1008.33
2016-05-24T11:49:29.231Z,1008.3
2016-05-24T11:50:29.219Z,1008.3
2016-05-24T11:51:29.206Z,1008.3
2016-05-24T11:52:29.176Z,1008.34
2016-05-24T11:53:29.164Z,1008.36
2016-05-24T11:54:29.136Z,1008.36
2016-05-24T11:55:29.122Z,1008.38
2016-05-24T11:56:29.110Z,1008.37
2016-05-24T11:57:29.080Z,1008.34
2016-05-24T11:58:29.068Z,1008.36
2016-05-24T11:59:29.039Z,1008.33
2016-05-24T12:00:29.026Z,1008.35
2016-05-24T12:01:28.998Z,1008.36
2016-05-24T12:02:28.985Z,1008.34
2016-05-24T12:03:28.971Z,1008.35
2016-05-24T12:04:28.943Z,1008.39
2016-05-24T12:05:28.930Z,1008.43
2016-05-24T12:06:28.902Z,1008.35
2016-05-24T12:07:28.889Z,1008.32
2016-05-24T12:08:28.876Z,1008.31